Flight Details

Back

 FLIGHT DETAILS

Pilot: GLD1793 Tiago I. Aircraft: ATCCOM.ATC_NAME_BEECHCR Distance: 50NM
From: TLPC To: TFFF Duration: 0.42
Validation: Valid Tipo: Charter Tail Number: PT-GLD
ZFW: 4324 Block Fuel/Init FOB 147flight_details.php/0 Flight Fuel 147
Passengers: 5 Cargo: 0 Alternate: TFFR
Departure Time: 1839 Cruise Speed: 195 Flight Level: FL400
Flight Type: IFR Aircraft Type: BE58 Weight Unit: Kg
Date: 04/05/2026 Comments: GOLD ACARS Network: VATSIM
Crash: No Validator Comments: Rating 100

 ROUTE

ROUTE DCT KAREX DCT
REMARKS OPR/GOLD VIRTUAL AIRLINES PER/C RMK/FROM TLPC RMK/PIC GLD1793

 FLIGHT PENALTIES

Crash OK Beacon Lights off with engine on OK Speed above 250KIAS below 10.000ft OK
Landing Lights OFF below 10.000ft OK Landing Lights ON above 10.000ft OK Stall OK
Overspeed OK Pause OK Refuel OK
Slew OK Taxi Lights OFF during taxi OK Land Lights OFF during take off OK
Landing Lights OFF during landing OK Landed in not planned airfield OK Taxi speed above 25 kt OK
Incorrect QNH during take off OK Incorrect QNH during landing OK

 LANDING ANALYSIS

Wind: 79º/20 kt Heading: 80
VS: -28 ft/min IAS: 83 kt
Gforce: 1.0096 G Bank: 0.08
Pitch 4.89 Flaps 50
Nav Lights ON Landing Lights ON
Beacon Lights ON Strobe Lights ON

 FLIGHT MAP

 FIGHT VERTICAL PROFILE

 FLIGHT MAIN EVENTS

DATEEVENTIASALTITUDE
2026-05-04 18:39:37 GOLD ACARS VERSION 3.3.7.100
2026-05-04 18:39:37 BOARDING0-43
2026-05-04 18:39:45 STB LIGHTS ON0-43
2026-05-04 18:39:47 NAV LIGHTS ON0-43
2026-05-04 18:40:25 STARTING ENGINE 10-43
2026-05-04 18:41:28 STARTING ENGINE 20-43
2026-05-04 18:41:57 TAXI LIGHTS ON0-43
2026-05-04 18:42:31 TAXI TO THE RWY0-43
2026-05-04 18:45:06 FLAP 50%52-38
2026-05-04 18:45:15 CLIMBING93-19
2026-05-04 18:45:15 TAKE OFF TRANSPONDER NOT IN C MODE93-19
2026-05-04 18:45:19 GEAR UP10126
2026-05-04 18:45:20 FLAP 0%10161
2026-05-04 18:46:58 AP ENGAGED1252867
2026-05-04 18:47:03 CRUISE1322993
2026-05-04 18:56:39 DESCEND1942921
2026-05-04 18:57:50 AP DISENGAGED2201881
2026-05-04 18:58:55 CLIMBING197473
2026-05-04 18:59:00 CRUISE188523
2026-05-04 18:59:00 LANDING186519
2026-05-04 18:59:18 FLAP 50%146372
2026-05-04 18:59:20 GEAR DOWN143378
2026-05-04 19:00:01 CLIMBING115209
2026-05-04 19:00:04 CRUISE119242
2026-05-04 19:00:08 CLIMBING127261
2026-05-04 19:00:25 CRUISE100476
2026-05-04 19:00:26 LANDING97471
2026-05-04 19:01:18 LANDED AIRPORT [TFFF]84-11
2026-05-04 19:01:19 LANDED - VS: -28 ft/min83-12
2026-05-04 19:01:29 TAXI TO THE GATE27-15
2026-05-04 19:03:04 AT THE GATE0-14
2026-05-04 19:04:08 TAXI LIGHTS OFF0-14
2026-05-04 19:04:10 LND LIGHTS OFF0-14
2026-05-04 19:04:31 STOPPING ENGINE 10-14
2026-05-04 19:04:36 STOPPING ENGINE 20-14
2026-05-04 19:04:52 NAV LIGHTS OFF0-14
2026-05-04 19:04:54 STB LIGHTS OFF0-14
2026-05-04 19:04:54 FLIGHT FINISHED0-14
2026-05-04 18:39:37 GOLD ACARS VERSION 3.3.7.100
2026-05-04 18:39:37 BOARDING0-43
2026-05-04 18:39:45 STB LIGHTS ON0-43
2026-05-04 18:39:47 NAV LIGHTS ON0-43
2026-05-04 18:40:25 STARTING ENGINE 10-43
2026-05-04 18:41:28 STARTING ENGINE 20-43
2026-05-04 18:41:57 TAXI LIGHTS ON0-43
2026-05-04 18:42:31 TAXI TO THE RWY0-43
2026-05-04 18:45:06 FLAP 50%52-38
2026-05-04 18:45:15 CLIMBING93-19
2026-05-04 18:45:15 TAKE OFF TRANSPONDER NOT IN C MODE93-19
2026-05-04 18:45:19 GEAR UP10126
2026-05-04 18:45:20 FLAP 0%10161
2026-05-04 18:46:58 AP ENGAGED1252867
2026-05-04 18:47:03 CRUISE1322993
2026-05-04 18:56:39 DESCEND1942921
2026-05-04 18:57:50 AP DISENGAGED2201881
2026-05-04 18:58:55 CLIMBING197473
2026-05-04 18:59:00 CRUISE188523
2026-05-04 18:59:00 LANDING186519
2026-05-04 18:59:18 FLAP 50%146372
2026-05-04 18:59:20 GEAR DOWN143378
2026-05-04 19:00:01 CLIMBING115209
2026-05-04 19:00:04 CRUISE119242
2026-05-04 19:00:08 CLIMBING127261
2026-05-04 19:00:25 CRUISE100476
2026-05-04 19:00:26 LANDING97471
2026-05-04 19:01:18 LANDED AIRPORT [TFFF]84-11
2026-05-04 19:01:19 LANDED - VS: -28 ft/min83-12
2026-05-04 19:01:29 TAXI TO THE GATE27-15
2026-05-04 19:03:04 AT THE GATE0-14
2026-05-04 19:04:08 TAXI LIGHTS OFF0-14
2026-05-04 19:04:10 LND LIGHTS OFF0-14
2026-05-04 19:04:31 STOPPING ENGINE 10-14
2026-05-04 19:04:36 STOPPING ENGINE 20-14
2026-05-04 19:04:52 NAV LIGHTS OFF0-14
2026-05-04 19:04:54 STB LIGHTS OFF0-14
2026-05-04 19:04:54 FLIGHT FINISHED0-14
2026-05-04 18:39:37 GOLD ACARS VERSION 3.3.7.100
2026-05-04 18:39:37 BOARDING0-43
2026-05-04 18:39:45 STB LIGHTS ON0-43
2026-05-04 18:39:47 NAV LIGHTS ON0-43
2026-05-04 18:40:25 STARTING ENGINE 10-43
2026-05-04 18:41:28 STARTING ENGINE 20-43
2026-05-04 18:41:57 TAXI LIGHTS ON0-43
2026-05-04 18:42:31 TAXI TO THE RWY0-43
2026-05-04 18:45:06 FLAP 50%52-38
2026-05-04 18:45:15 CLIMBING93-19
2026-05-04 18:45:15 TAKE OFF TRANSPONDER NOT IN C MODE93-19
2026-05-04 18:45:19 GEAR UP10126
2026-05-04 18:45:20 FLAP 0%10161
2026-05-04 18:46:58 AP ENGAGED1252867
2026-05-04 18:47:03 CRUISE1322993
2026-05-04 18:56:39 DESCEND1942921
2026-05-04 18:57:50 AP DISENGAGED2201881
2026-05-04 18:58:55 CLIMBING197473
2026-05-04 18:59:00 CRUISE188523
2026-05-04 18:59:00 LANDING186519
2026-05-04 18:59:18 FLAP 50%146372
2026-05-04 18:59:20 GEAR DOWN143378
2026-05-04 19:00:01 CLIMBING115209
2026-05-04 19:00:04 CRUISE119242
2026-05-04 19:00:08 CLIMBING127261
2026-05-04 19:00:25 CRUISE100476
2026-05-04 19:00:26 LANDING97471
2026-05-04 19:01:18 LANDED AIRPORT [TFFF]84-11
2026-05-04 19:01:19 LANDED - VS: -28 ft/min83-12
2026-05-04 19:01:29 TAXI TO THE GATE27-15
2026-05-04 19:03:04 AT THE GATE0-14
2026-05-04 19:04:08 TAXI LIGHTS OFF0-14
2026-05-04 19:04:10 LND LIGHTS OFF0-14
2026-05-04 19:04:31 STOPPING ENGINE 10-14
2026-05-04 19:04:36 STOPPING ENGINE 20-14
2026-05-04 19:04:52 NAV LIGHTS OFF0-14
2026-05-04 19:04:54 STB LIGHTS OFF0-14
2026-05-04 19:04:54 FLIGHT FINISHED0-14
2026-05-04 18:39:37 GOLD ACARS VERSION 3.3.7.100
2026-05-04 18:39:37 BOARDING0-43
2026-05-04 18:39:45 STB LIGHTS ON0-43
2026-05-04 18:39:47 NAV LIGHTS ON0-43
2026-05-04 18:40:25 STARTING ENGINE 10-43
2026-05-04 18:41:28 STARTING ENGINE 20-43
2026-05-04 18:41:57 TAXI LIGHTS ON0-43
2026-05-04 18:42:31 TAXI TO THE RWY0-43
2026-05-04 18:45:06 FLAP 50%52-38
2026-05-04 18:45:15 CLIMBING93-19
2026-05-04 18:45:15 TAKE OFF TRANSPONDER NOT IN C MODE93-19
2026-05-04 18:45:19 GEAR UP10126
2026-05-04 18:45:20 FLAP 0%10161
2026-05-04 18:46:58 AP ENGAGED1252867
2026-05-04 18:47:03 CRUISE1322993
2026-05-04 18:56:39 DESCEND1942921
2026-05-04 18:57:50 AP DISENGAGED2201881
2026-05-04 18:58:55 CLIMBING197473
2026-05-04 18:59:00 CRUISE188523
2026-05-04 18:59:00 LANDING186519
2026-05-04 18:59:18 FLAP 50%146372
2026-05-04 18:59:20 GEAR DOWN143378
2026-05-04 19:00:01 CLIMBING115209
2026-05-04 19:00:04 CRUISE119242
2026-05-04 19:00:08 CLIMBING127261
2026-05-04 19:00:25 CRUISE100476
2026-05-04 19:00:26 LANDING97471
2026-05-04 19:01:18 LANDED AIRPORT [TFFF]84-11
2026-05-04 19:01:19 LANDED - VS: -28 ft/min83-12
2026-05-04 19:01:29 TAXI TO THE GATE27-15
2026-05-04 19:03:04 AT THE GATE0-14
2026-05-04 19:04:08 TAXI LIGHTS OFF0-14
2026-05-04 19:04:10 LND LIGHTS OFF0-14
2026-05-04 19:04:31 STOPPING ENGINE 10-14
2026-05-04 19:04:36 STOPPING ENGINE 20-14
2026-05-04 19:04:52 NAV LIGHTS OFF0-14
2026-05-04 19:04:54 STB LIGHTS OFF0-14
2026-05-04 19:04:54 FLIGHT FINISHED0-14
2026-05-04 18:39:37 GOLD ACARS VERSION 3.3.7.100
2026-05-04 18:39:37 BOARDING0-43
2026-05-04 18:39:45 STB LIGHTS ON0-43
2026-05-04 18:39:47 NAV LIGHTS ON0-43
2026-05-04 18:40:25 STARTING ENGINE 10-43
2026-05-04 18:41:28 STARTING ENGINE 20-43
2026-05-04 18:41:57 TAXI LIGHTS ON0-43
2026-05-04 18:42:31 TAXI TO THE RWY0-43
2026-05-04 18:45:06 FLAP 50%52-38
2026-05-04 18:45:15 CLIMBING93-19
2026-05-04 18:45:15 TAKE OFF TRANSPONDER NOT IN C MODE93-19
2026-05-04 18:45:19 GEAR UP10126
2026-05-04 18:45:20 FLAP 0%10161
2026-05-04 18:46:58 AP ENGAGED1252867
2026-05-04 18:47:03 CRUISE1322993
2026-05-04 18:56:39 DESCEND1942921
2026-05-04 18:57:50 AP DISENGAGED2201881
2026-05-04 18:58:55 CLIMBING197473
2026-05-04 18:59:00 CRUISE188523
2026-05-04 18:59:00 LANDING186519
2026-05-04 18:59:18 FLAP 50%146372
2026-05-04 18:59:20 GEAR DOWN143378
2026-05-04 19:00:01 CLIMBING115209
2026-05-04 19:00:04 CRUISE119242
2026-05-04 19:00:08 CLIMBING127261
2026-05-04 19:00:25 CRUISE100476
2026-05-04 19:00:26 LANDING97471
2026-05-04 19:01:18 LANDED AIRPORT [TFFF]84-11
2026-05-04 19:01:19 LANDED - VS: -28 ft/min83-12
2026-05-04 19:01:29 TAXI TO THE GATE27-15
2026-05-04 19:03:04 AT THE GATE0-14
2026-05-04 19:04:08 TAXI LIGHTS OFF0-14
2026-05-04 19:04:10 LND LIGHTS OFF0-14
2026-05-04 19:04:31 STOPPING ENGINE 10-14
2026-05-04 19:04:36 STOPPING ENGINE 20-14
2026-05-04 19:04:52 NAV LIGHTS OFF0-14
2026-05-04 19:04:54 STB LIGHTS OFF0-14
2026-05-04 19:04:54 FLIGHT FINISHED0-14

 ACARS DATA

DATEIASGSALTITUDEFUEL USED OATFlight Phase
2026-05-04 18:41:3200-43029BOARDING
2026-05-04 18:42:3307-43030BOARDING
2026-05-04 18:43:3406-39029TAXI TO THE RWY
2026-05-04 18:44:3590-39029TAXI TO THE RWY
2026-05-04 18:45:36118125442129TAXI TO THE RWY
2026-05-04 18:46:371291572293321CLIMBING
2026-05-04 18:47:381781993010519CLIMBING
2026-05-04 18:48:381912113009620CRUISE
2026-05-04 18:49:391942133008820CRUISE
2026-05-04 18:50:4019121330071020CRUISE
2026-05-04 18:51:4119121330081220CRUISE
2026-05-04 18:52:4219021230051420CRUISE
2026-05-04 18:53:4319221030011620CRUISE
2026-05-04 18:54:4419219829991720CRUISE
2026-05-04 18:55:4519019329341920CRUISE
2026-05-04 18:56:4519720228821921CRUISE
2026-05-04 18:57:4622021619581923DESCEND
2026-05-04 18:58:472062074772029DESCEND
2026-05-04 18:59:481171181952030DESCEND
2026-05-04 19:00:491131021612130LANDING
2026-05-04 19:01:50011-152130LANDING
2026-05-04 19:02:5183-142130TAXI TO THE GATE
2026-05-04 19:03:5200-142130TAXI TO THE GATE
2026-05-04 19:04:5300-142130AT THE GATE
2026-05-04 19:10:5400-14-1030AT THE GATE